Time;durP1;ratioP1;P1;durP2;ratioP2;P2;SDS_P1;SDS_P2;PMS_P1;PMS_P2;Temp;Humidity;BMP_temperature;BMP_pressure;BME280_temperature;BME280_humidity;BME280_pressure;Samples;Min_cycle;Max_cycle;Signal;HPM_P1;HPM_P2
2022/06/11 07:02:28;;;;;;;3.37;2.11;;;;;;;;;;13088136;22;3290954;-81
2022/06/11 07:07:29;;;;;;;4.55;2.60;;;;;;;;;;12924040;23;20474;-80
2022/06/11 07:12:30;;;;;;;3.78;2.13;;;;;;;;;;12917621;23;20467;-80
2022/06/11 07:17:34;;;;;;;3.53;1.88;;;;;;;;;;12946327;23;20015;-81
2022/06/11 07:22:55;;;;;;;7.13;3.75;;;;;;;;;;12919425;23;20004;-81
2022/06/11 07:28:00;;;;;;;3.80;2.70;;;;;;;;;;12917129;23;20004;-80
2022/06/11 07:33:02;;;;;;;4.13;3.10;;;;;;;;;;12928893;23;20387;-80
2022/06/11 07:38:05;;;;;;;4.20;3.00;;;;;;;;;;12963863;23;20075;-80
2022/06/11 07:43:07;;;;;;;5.18;3.63;;;;;;;;;;12924475;23;20000;-80
2022/06/11 07:48:08;;;;;;;4.60;3.80;;;;;;;;;;12947494;23;20004;-80
2022/06/11 07:53:10;;;;;;;4.88;3.63;;;;;;;;;;12920036;23;20015;-80
2022/06/11 07:58:11;;;;;;;6.10;4.50;;;;;;;;;;12944511;23;20000;-80
2022/06/11 08:03:12;;;;;;;5.40;4.20;;;;;;;;;;12914528;23;20016;-79
2022/06/11 08:08:14;;;;;;;4.22;3.22;;;;;;;;;;12912687;23;20031;-80
2022/06/11 08:13:15;;;;;;;5.18;3.10;;;;;;;;;;12916091;23;20440;-81
2022/06/11 08:18:18;;;;;;;3.30;3.00;;;;;;;;;;12917185;23;20429;-81
2022/06/11 08:23:23;;;;;;;4.25;3.08;;;;;;;;;;12916963;23;20055;-82
2022/06/11 08:28:24;;;;;;;5.45;2.70;;;;;;;;;;12915939;23;20031;-83
2022/06/11 08:33:25;;;;;;;4.60;2.65;;;;;;;;;;12915059;23;20011;-82
2022/06/11 08:38:27;;;;;;;4.65;3.08;;;;;;;;;;12914222;23;20010;-81
2022/06/11 08:43:33;;;;;;;5.57;2.40;;;;;;;;;;12937717;23;20071;-81
2022/06/11 08:48:50;;;;;;;4.60;2.70;;;;;;;;;;12939126;23;20011;-82
2022/06/11 08:53:58;;;;;;;5.53;3.03;;;;;;;;;;12915772;23;20456;-82
2022/06/11 09:48:28;;;;;;;7.05;2.40;;;;;;;;;;12864056;23;20020;-79
2022/06/11 09:53:47;;;;;;;5.40;2.50;;;;;;;;;;12896157;23;20012;-79
2022/06/11 09:58:48;;;;;;;4.75;2.38;;;;;;;;;;12899555;23;19996;-80
2022/06/11 10:03:52;;;;;;;8.38;2.75;;;;;;;;;;12899891;23;20009;-80
2022/06/11 10:08:57;;;;;;;8.65;4.15;;;;;;;;;;12894849;23;20001;-80
2022/06/11 10:13:58;;;;;;;6.50;3.10;;;;;;;;;;12897161;23;20000;-80
2022/06/11 10:19:08;;;;;;;5.57;2.50;;;;;;;;;;12900963;23;20463;-80
2022/06/11 10:30:22;;;;;;;5.18;3.53;;;;;;;;;;12896416;23;20009;-81
2022/06/11 10:35:30;;;;;;;6.63;2.28;;;;;;;;;;12867719;23;20004;-80
2022/06/11 10:41:19;;;;;;;4.65;2.40;;;;;;;;;;12888703;23;20012;-80
2022/06/11 10:46:46;;;;;;;5.00;3.65;;;;;;;;;;12823451;23;20008;-79
2022/06/11 10:58:06;;;;;;;13.13;9.18;;;;;;;;;;12712900;23;20030;-79
2022/06/11 11:09:14;;;;;;;4.15;2.80;;;;;;;;;;12710580;23;20014;-80
2022/06/11 11:31:50;;;;;;;11.43;8.55;;;;;;;;;;12682762;23;20037;-79
2022/06/11 12:22:40;;;;;;;5.30;2.53;;;;;;;;;;12877023;23;20017;-87
2022/06/11 12:28:01;;;;;;;6.90;2.63;;;;;;;;;;12853118;23;20028;-87
2022/06/11 13:01:53;;;;;;;5.38;4.10;;;;;;;;;;12871213;23;19997;-88
2022/06/11 13:13:38;;;;;;;4.00;2.08;;;;;;;;;;12862459;23;20008;-87
2022/06/11 13:36:18;;;;;;;2.60;1.63;;;;;;;;;;12869787;23;20028;-87
2022/06/11 13:41:43;;;;;;;3.65;1.55;;;;;;;;;;12620040;23;20018;-88
2022/06/11 14:21:38;;;;;;;2.90;1.20;;;;;;;;;;12684206;23;20029;-87
2022/06/11 14:32:51;;;;;;;3.63;1.50;;;;;;;;;;12691898;23;20041;-88
2022/06/11 14:38:17;;;;;;;2.35;1.50;;;;;;;;;;12687913;23;20010;-88
2022/06/11 14:54:57;;;;;;;4.55;1.73;;;;;;;;;;12698946;23;20470;-88
2022/06/11 15:51:58;;;;;;;2.97;1.30;;;;;;;;;;12622377;23;20014;-88
2022/06/11 16:08:41;;;;;;;3.83;2.28;;;;;;;;;;12620624;23;20094;-88
2022/06/11 16:14:23;;;;;;;4.05;1.50;;;;;;;;;;12560488;23;20034;-87
2022/06/11 18:01:41;;;;;;;3.80;1.40;;;;;;;;;;12878726;23;20008;-87
